Time;durP1;ratioP1;P1;durP2;ratioP2;P2;SDS_P1;SDS_P2;PMS_P1;PMS_P2;Temp;Humidity;BMP_temperature;BMP_pressure;BME280_temperature;BME280_humidity;BME280_pressure;Samples;Min_cycle;Max_cycle;Signal;HPM_P1;HPM_P2
2023/08/18 00:00:39;;;;;;;45.75;41.35;;;;;;;;;;7306933;19;140824;-79
2023/08/18 00:03:06;;;;;;;49.92;44.90;;;;;;;;;;7306343;19;140748;-79
2023/08/18 00:05:33;;;;;;;60.92;53.80;;;;;;;;;;7306435;19;140762;-80
2023/08/18 00:08:00;;;;;;;3.53;3.22;;;;;;;;;;7305898;19;141876;-79
2023/08/18 00:10:28;;;;;;;4.38;3.65;;;;;;;;;;7305710;19;140713;-79
2023/08/18 00:12:55;;;;;;;24.35;22.08;;;;;;;;;;7304920;19;140694;-79
2023/08/18 00:15:22;;;;;;;37.47;33.78;;;;;;;;;;7306007;19;141515;-80
2023/08/18 00:17:49;;;;;;;9.02;8.18;;;;;;;;;;7305652;19;142499;-80
2023/08/18 00:20:16;;;;;;;8.82;8.13;;;;;;;;;;7306263;19;140579;-80
2023/08/18 00:22:43;;;;;;;40.60;37.03;;;;;;;;;;7306271;19;140433;-79
2023/08/18 00:25:11;;;;;;;8.65;7.90;;;;;;;;;;7305026;19;140432;-81
2023/08/18 00:27:38;;;;;;;7.10;6.50;;;;;;;;;;7305474;19;141881;-79
2023/08/18 00:30:06;;;;;;;12.05;11.18;;;;;;;;;;7306161;19;140580;-79
2023/08/18 00:32:35;;;;;;;15.70;14.57;;;;;;;;;;7305530;19;140580;-81
2023/08/18 00:35:04;;;;;;;44.53;40.13;;;;;;;;;;7304478;19;140375;-80
2023/08/18 00:37:31;;;;;;;29.40;26.30;;;;;;;;;;7305214;19;143141;-79
2023/08/18 00:39:58;;;;;;;6.18;4.25;;;;;;;;;;7304807;19;140565;-79
2023/08/18 00:42:25;;;;;;;9.15;8.45;;;;;;;;;;7305151;19;140565;-80
2023/08/18 00:44:52;;;;;;;29.52;27.02;;;;;;;;;;7304620;19;141158;-78
2023/08/18 00:47:19;;;;;;;48.03;43.42;;;;;;;;;;7304448;19;142256;-78
2023/08/18 00:49:46;;;;;;;39.72;36.13;;;;;;;;;;7305142;19;140671;-78
2023/08/18 00:52:14;;;;;;;47.20;42.22;;;;;;;;;;7304805;19;140553;-79
2023/08/18 00:54:40;;;;;;;7.90;4.40;;;;;;;;;;7301161;19;141512;-79
2023/08/18 00:57:11;;;;;;;8.65;6.20;;;;;;;;;;7304671;19;141416;-78
2023/08/18 00:59:38;;;;;;;38.47;35.15;;;;;;;;;;7304009;19;140735;-78
2023/08/18 01:02:05;;;;;;;103.43;77.10;;;;;;;;;;7304162;19;140692;-78
2023/08/18 01:04:32;;;;;;;45.20;40.95;;;;;;;;;;7303844;19;141248;-78
2023/08/18 01:06:59;;;;;;;66.90;58.15;;;;;;;;;;7303863;19;141139;-79
2023/08/18 01:09:27;;;;;;;24.58;22.63;;;;;;;;;;7303971;19;140393;-79
2023/08/18 01:11:54;;;;;;;33.72;30.88;;;;;;;;;;7304555;19;140756;-78
2023/08/18 01:14:26;;;;;;;31.75;29.00;;;;;;;;;;7304269;19;142032;-78
2023/08/18 01:16:59;;;;;;;41.58;37.70;;;;;;;;;;7304150;19;141841;-78
2023/08/18 01:19:26;;;;;;;45.65;41.30;;;;;;;;;;7304006;19;140548;-79
2023/08/18 01:21:57;;;;;;;37.13;33.88;;;;;;;;;;7304489;19;140689;-79
2023/08/18 01:24:27;;;;;;;20.67;18.42;;;;;;;;;;7303489;19;141060;-79
2023/08/18 01:26:54;;;;;;;69.47;60.28;;;;;;;;;;7303188;19;142094;-80
2023/08/18 01:29:22;;;;;;;71.88;61.00;;;;;;;;;;7304402;19;140533;-78
2023/08/18 01:31:53;;;;;;;63.30;56.40;;;;;;;;;;7304362;19;140676;-78
2023/08/18 01:34:20;;;;;;;;;;;;;;;;;;7302905;19;140586;-78
2023/08/18 01:36:48;;;;;;;75.65;63.78;;;;;;;;;;7303706;19;152333;-78
2023/08/18 01:39:16;;;;;;;82.55;67.10;;;;;;;;;;7318194;19;140307;-78
2023/08/18 01:41:44;;;;;;;37.45;33.92;;;;;;;;;;7328350;19;140410;-78
2023/08/18 01:44:14;;;;;;;45.20;40.70;;;;;;;;;;7325455;19;141138;-79
2023/08/18 01:46:41;;;;;;;49.10;32.88;;;;;;;;;;7309690;19;142216;-79
2023/08/18 01:49:09;;;;;;;5.88;4.82;;;;;;;;;;7314087;19;140467;-79
2023/08/18 01:51:36;;;;;;;20.38;18.75;;;;;;;;;;7311732;19;140479;-79
2023/08/18 01:54:03;;;;;;;43.58;39.53;;;;;;;;;;7303653;19;141144;-80
2023/08/18 01:56:35;;;;;;;20.90;18.90;;;;;;;;;;7299995;19;140813;-79
2023/08/18 01:59:03;;;;;;;35.97;32.97;;;;;;;;;;7303215;19;140529;-79
2023/08/18 02:01:31;;;;;;;39.35;35.78;;;;;;;;;;7301765;19;143405;-80
2023/08/18 02:03:58;;;;;;;31.92;29.08;;;;;;;;;;7302818;19;141095;-79
2023/08/18 02:06:25;;;;;;;50.80;45.85;;;;;;;;;;7302699;19;142846;-79
2023/08/18 02:08:52;;;;;;;26.75;24.30;;;;;;;;;;7302080;19;140610;-80
2023/08/18 02:11:19;;;;;;;29.27;26.73;;;;;;;;;;7302050;19;140611;-78
2023/08/18 02:13:46;;;;;;;26.02;21.17;;;;;;;;;;7301015;19;141115;-79
2023/08/18 02:16:14;;;;;;;3.83;3.38;;;;;;;;;;7302564;19;140689;-80
2023/08/18 02:18:41;;;;;;;4.78;3.65;;;;;;;;;;7302473;19;140536;-78
2023/08/18 02:21:08;;;;;;;5.70;4.65;;;;;;;;;;7302193;19;140482;-78
2023/08/18 02:23:35;;;;;;;6.95;6.35;;;;;;;;;;7301882;19;140965;-78
2023/08/18 02:26:03;;;;;;;12.98;11.88;;;;;;;;;;7301403;19;141888;-78
2023/08/18 02:28:30;;;;;;;18.17;16.73;;;;;;;;;;7302276;19;140498;-79
2023/08/18 02:31:01;;;;;;;12.88;11.68;;;;;;;;;;7301336;19;140857;-79
2023/08/18 02:33:27;;;;;;;;;;;;;;;;;;7302076;19;141051;-78
2023/08/18 02:35:55;;;;;;;13.43;12.10;;;;;;;;;;7301114;19;148827;-79
2023/08/18 02:38:22;;;;;;;14.10;12.75;;;;;;;;;;7302101;19;140548;-78
2023/08/18 02:40:49;;;;;;;19.88;18.13;;;;;;;;;;7301303;19;140539;-78
2023/08/18 02:43:16;;;;;;;39.15;35.53;;;;;;;;;;7301346;19;141961;-78
2023/08/18 02:45:43;;;;;;;17.83;16.17;;;;;;;;;;7301057;19;142153;-77
2023/08/18 02:48:11;;;;;;;29.80;27.20;;;;;;;;;;7301540;19;140658;-78
2023/08/18 02:50:38;;;;;;;30.35;27.70;;;;;;;;;;7301132;19;140426;-78
2023/08/18 02:53:06;;;;;;;43.97;39.75;;;;;;;;;;7300999;19;141058;-77
2023/08/18 02:55:36;;;;;;;42.72;38.70;;;;;;;;;;7300270;19;143218;-77
2023/08/18 02:58:03;;;;;;;18.40;16.90;;;;;;;;;;7300156;19;140904;-78
2023/08/18 03:00:31;;;;;;;20.48;18.75;;;;;;;;;;7300718;19;140567;-78
2023/08/18 03:03:00;;;;;;;34.22;31.10;;;;;;;;;;7300940;19;141246;-78
2023/08/18 03:05:27;;;;;;;44.17;39.95;;;;;;;;;;7300095;19;141910;-78
2023/08/18 03:07:54;;;;;;;56.60;50.67;;;;;;;;;;7300574;19;140595;-79
2023/08/18 03:10:22;;;;;;;68.45;59.58;;;;;;;;;;7300036;19;140716;-78
2023/08/18 03:12:48;;;;;;;101.90;77.82;;;;;;;;;;7299864;19;141342;-78
2023/08/18 03:15:15;;;;;;;56.97;50.92;;;;;;;;;;7299806;19;141923;-78
2023/08/18 03:17:45;;;;;;;52.42;47.17;;;;;;;;;;7301395;19;140619;-78
2023/08/18 03:20:12;;;;;;;75.55;62.53;;;;;;;;;;7300454;19;140695;-78
2023/08/18 03:22:40;;;;;;;62.67;55.15;;;;;;;;;;7299967;19;141272;-78
2023/08/18 03:25:07;;;;;;;75.28;61.95;;;;;;;;;;7297898;19;140724;-78
2023/08/18 03:27:34;;;;;;;90.32;71.43;;;;;;;;;;7300418;19;140586;-78
2023/08/18 03:30:01;;;;;;;106.72;80.65;;;;;;;;;;7300429;19;140456;-81
2023/08/18 03:32:28;;;;;;;8.05;7.22;;;;;;;;;;7298534;19;140846;-80
2023/08/18 03:34:56;;;;;;;28.77;26.48;;;;;;;;;;7298107;19;141829;-80
2023/08/18 03:37:23;;;;;;;39.50;36.05;;;;;;;;;;7298278;19;140693;-79
2023/08/18 03:39:54;;;;;;;73.13;61.45;;;;;;;;;;7298420;19;142404;-79
2023/08/18 03:42:22;;;;;;;60.55;53.88;;;;;;;;;;7298642;19;140639;-79
2023/08/18 03:44:49;;;;;;;63.80;56.85;;;;;;;;;;7299947;19;140810;-81
2023/08/18 03:47:16;;;;;;;77.32;64.47;;;;;;;;;;7299713;19;140537;-81
2023/08/18 03:49:43;;;;;;;94.53;73.60;;;;;;;;;;7299652;19;140752;-81
2023/08/18 03:52:10;;;;;;;72.15;61.75;;;;;;;;;;7299457;19;141980;-81
2023/08/18 03:54:37;;;;;;;48.80;44.05;;;;;;;;;;7299118;19;142814;-79
2023/08/18 03:57:04;;;;;;;57.83;51.80;;;;;;;;;;7298873;19;140352;-79
2023/08/18 03:59:32;;;;;;;63.30;56.38;;;;;;;;;;7299062;19;140467;-79
2023/08/18 04:01:59;;;;;;;58.45;52.38;;;;;;;;;;7299362;19;140553;-79
2023/08/18 04:04:26;;;;;;;69.75;59.17;;;;;;;;;;7299140;19;141998;-79
2023/08/18 04:06:53;;;;;;;64.25;57.22;;;;;;;;;;7299193;19;140801;-80
2023/08/18 04:09:21;;;;;;;81.88;66.90;;;;;;;;;;7298929;19;140685;-80
2023/08/18 04:11:48;;;;;;;91.93;72.07;;;;;;;;;;7304055;19;141076;-80
2023/08/18 04:14:16;;;;;;;135.05;94.13;;;;;;;;;;7306130;19;141807;-80
2023/08/18 04:16:45;;;;;;;145.30;99.32;;;;;;;;;;7304444;19;140686;-79
2023/08/18 04:19:12;;;;;;;129.75;91.68;;;;;;;;;;7305864;19;140549;-80
2023/08/18 04:21:39;;;;;;;143.85;98.55;;;;;;;;;;7305573;19;141606;-80
2023/08/18 04:24:06;;;;;;;154.27;103.03;;;;;;;;;;7305513;19;142417;-80
2023/08/18 04:26:37;;;;;;;145.85;98.88;;;;;;;;;;7305511;19;140572;-80
2023/08/18 04:29:04;;;;;;;68.78;47.22;;;;;;;;;;7304057;19;140679;-81
2023/08/18 04:31:31;;;;;;;53.15;47.78;;;;;;;;;;7305495;19;141475;-81
2023/08/18 04:33:58;;;;;;;56.05;50.28;;;;;;;;;;7307865;19;141397;-81
2023/08/18 04:36:25;;;;;;;57.33;51.17;;;;;;;;;;7305354;19;140641;-80
2023/08/18 04:38:52;;;;;;;63.88;56.85;;;;;;;;;;7304757;19;141075;-80
2023/08/18 04:41:19;;;;;;;86.78;69.75;;;;;;;;;;7304720;19;141909;-80
2023/08/18 04:43:49;;;;;;;76.75;64.20;;;;;;;;;;7304762;19;141844;-80
2023/08/18 04:46:17;;;;;;;13.18;11.27;;;;;;;;;;7305564;19;140481;-81
2023/08/18 04:48:44;;;;;;;6.97;6.18;;;;;;;;;;7305161;19;140643;-74
2023/08/18 04:51:11;;;;;;;12.82;11.73;;;;;;;;;;7303976;19;141163;-73
2023/08/18 04:53:38;;;;;;;17.13;15.68;;;;;;;;;;7304729;19;141241;-74
2023/08/18 04:56:05;;;;;;;16.05;14.73;;;;;;;;;;7303842;19;140406;-74
2023/08/18 04:58:32;;;;;;;29.40;27.13;;;;;;;;;;7304444;19;140795;-74
2023/08/18 05:01:00;;;;;;;55.08;49.53;;;;;;;;;;7304004;19;141326;-73
2023/08/18 05:03:27;;;;;;;76.43;63.65;;;;;;;;;;7304216;19;142492;-73
2023/08/18 05:06:08;;;;;;;72.68;62.38;;;;;;;;;;7304235;19;140529;-73
2023/08/18 05:08:36;;;;;;;72.38;62.03;;;;;;;;;;7304710;19;140725;-73
2023/08/18 05:11:04;;;;;;;71.07;59.47;;;;;;;;;;7303224;19;141066;-73
2023/08/18 05:13:32;;;;;;;69.32;59.20;;;;;;;;;;7303876;19;142327;-73
2023/08/18 05:16:00;;;;;;;60.80;54.15;;;;;;;;;;7303987;19;140632;-74
2023/08/18 05:18:29;;;;;;;75.50;63.28;;;;;;;;;;7303382;19;140587;-74
2023/08/18 05:20:57;;;;;;;74.07;62.53;;;;;;;;;;7303834;19;141591;-72
2023/08/18 05:23:24;;;;;;;87.10;69.93;;;;;;;;;;7303137;19;142030;-73
2023/08/18 05:25:55;;;;;;;93.53;72.53;;;;;;;;;;7303048;19;140510;-73
2023/08/18 05:28:22;;;;;;;94.53;73.72;;;;;;;;;;7303975;19;140647;-73
2023/08/18 05:30:50;;;;;;;105.07;78.93;;;;;;;;;;7303070;19;141290;-73
2023/08/18 05:33:17;;;;;;;96.47;73.93;;;;;;;;;;7303157;19;142156;-73
2023/08/18 05:35:44;;;;;;;112.22;82.50;;;;;;;;;;7303257;19;140456;-73
2023/08/18 05:38:11;;;;;;;109.28;81.03;;;;;;;;;;7302014;19;140520;-73
2023/08/18 05:40:42;;;;;;;126.47;88.95;;;;;;;;;;7302712;19;142955;-74
2023/08/18 05:43:09;;;;;;;135.70;94.15;;;;;;;;;;7302522;19;141875;-74
2023/08/18 05:45:36;;;;;;;134.18;93.28;;;;;;;;;;7302856;19;140792;-74
2023/08/18 05:48:04;;;;;;;147.88;100.57;;;;;;;;;;7303146;19;141101;-74
2023/08/18 05:50:31;;;;;;;166.57;108.85;;;;;;;;;;7302572;19;141699;-74
2023/08/18 05:53:01;;;;;;;185.45;118.47;;;;;;;;;;7302707;19;140701;-73
2023/08/18 05:55:28;;;;;;;181.75;117.40;;;;;;;;;;7302365;19;140394;-74
2023/08/18 05:57:57;;;;;;;180.98;116.68;;;;;;;;;;7301729;19;140734;-72
2023/08/18 06:00:24;;;;;;;187.88;119.35;;;;;;;;;;7301090;19;141180;-74
2023/08/18 06:02:52;;;;;;;169.88;110.68;;;;;;;;;;7302041;19;142074;-73
2023/08/18 06:05:19;;;;;;;177.93;114.78;;;;;;;;;;7302395;19;140622;-73
2023/08/18 06:07:46;;;;;;;160.40;105.72;;;;;;;;;;7302021;19;140534;-74
2023/08/18 06:10:13;;;;;;;175.07;113.53;;;;;;;;;;7301872;19;142179;-74
2023/08/18 06:12:40;;;;;;;169.30;110.05;;;;;;;;;;7300619;19;141892;-74
2023/08/18 06:15:11;;;;;;;180.85;115.85;;;;;;;;;;7301960;19;140484;-73
2023/08/18 06:17:38;;;;;;;188.95;120.30;;;;;;;;;;7300258;19;140896;-73
2023/08/18 06:20:05;;;;;;;186.65;118.97;;;;;;;;;;7300012;19;141966;-73
2023/08/18 06:22:32;;;;;;;182.10;116.63;;;;;;;;;;7301515;19;142055;-73
2023/08/18 06:24:59;;;;;;;196.35;122.03;;;;;;;;;;7302126;19;141112;-73
2023/08/18 06:27:26;;;;;;;203.75;125.28;;;;;;;;;;7302134;19;140812;-87
2023/08/18 06:29:53;;;;;;;195.90;123.85;;;;;;;;;;7300499;19;140900;-84
2023/08/18 06:32:21;;;;;;;206.48;127.20;;;;;;;;;;7303101;19;143076;-87
2023/08/18 06:34:49;;;;;;;197.00;123.30;;;;;;;;;;7301261;19;140694;-74
2023/08/18 06:37:16;;;;;;;198.13;123.30;;;;;;;;;;7306602;19;140922;-73
2023/08/18 06:51:50;;;;;;;136.48;94.95;;;;;;;;;;7301705;19;141264;-73
2023/08/18 07:22:03;;;;;;;15.45;5.60;;;;;;;;;;7299084;19;140674;-81
2023/08/18 08:34:04;;;;;;;29.98;12.02;;;;;;;;;;7280959;19;142954;-73
2023/08/18 09:03:46;;;;;;;;;;;;;;;;;;;;;
2023/08/18 09:06:23;;;;;;;33.17;13.93;;;;;;;;;;7304683;19;140700;-81
2023/08/18 09:23:01;;;;;;;28.40;13.25;;;;;;;;;;7295617;19;141004;-82
2023/08/18 09:25:30;;;;;;;25.10;12.45;;;;;;;;;;7303913;19;140797;-87
2023/08/18 09:27:57;;;;;;;32.50;14.10;;;;;;;;;;7303789;19;141216;-83
2023/08/18 09:30:27;;;;;;;38.78;16.35;;;;;;;;;;7303739;19;140719;-87
2023/08/18 09:32:55;;;;;;;34.63;16.10;;;;;;;;;;7305546;19;140437;-86
2023/08/18 09:35:22;;;;;;;35.28;15.07;;;;;;;;;;7305247;19;140910;-81
2023/08/18 09:37:56;;;;;;;36.03;16.20;;;;;;;;;;7302530;19;142006;-80
2023/08/18 09:40:24;;;;;;;38.15;15.55;;;;;;;;;;7303239;19;140667;-81
2023/08/18 09:49:39;;;;;;;29.73;14.38;;;;;;;;;;7301786;19;141552;-80
2023/08/18 09:52:08;;;;;;;27.65;12.63;;;;;;;;;;7301860;19;140942;-73
2023/08/18 09:54:39;;;;;;;26.23;12.00;;;;;;;;;;7300427;19;140574;-74
2023/08/18 09:57:16;;;;;;;30.42;12.77;;;;;;;;;;7299521;19;142622;-75
2023/08/18 09:59:51;;;;;;;21.10;10.65;;;;;;;;;;7299088;19;142882;-75
2023/08/18 10:02:22;;;;;;;22.73;10.15;;;;;;;;;;7301255;19;140604;-75
2023/08/18 10:04:52;;;;;;;24.92;10.82;;;;;;;;;;7302026;19;140760;-75
2023/08/18 10:07:20;;;;;;;20.77;10.68;;;;;;;;;;7301630;19;140997;-78
2023/08/18 10:09:47;;;;;;;25.30;11.05;;;;;;;;;;7300503;19;140729;-75
2023/08/18 10:12:14;;;;;;;25.77;10.52;;;;;;;;;;7300133;19;140821;-75
2023/08/18 10:14:42;;;;;;;19.45;9.30;;;;;;;;;;7301761;19;140676;-76
2023/08/18 10:17:10;;;;;;;18.80;8.77;;;;;;;;;;7302037;19;140777;-79
2023/08/18 10:19:48;;;;;;;17.98;8.27;;;;;;;;;;7305170;19;142654;-86
2023/08/18 10:22:25;;;;;;;13.53;6.57;;;;;;;;;;7305704;19;140458;-90
2023/08/18 10:24:53;;;;;;;16.60;7.40;;;;;;;;;;7300143;19;146795;-89
2023/08/18 10:27:26;;;;;;;14.63;6.65;;;;;;;;;;7303006;19;141766;-87
2023/08/18 10:30:00;;;;;;;16.52;6.15;;;;;;;;;;7301940;19;141689;-86
2023/08/18 10:32:29;;;;;;;9.15;4.65;;;;;;;;;;7303774;19;140521;-91
2023/08/18 10:35:16;;;;;;;7.30;4.03;;;;;;;;;;7302902;19;140775;-92
2023/08/18 10:37:50;;;;;;;15.95;6.07;;;;;;;;;;7303453;19;140621;-90
2023/08/18 10:40:24;;;;;;;7.90;4.32;;;;;;;;;;7305050;19;141696;-90
2023/08/18 10:42:53;;;;;;;8.38;3.80;;;;;;;;;;7300988;19;140711;-84
2023/08/18 10:45:24;;;;;;;12.30;4.65;;;;;;;;;;7302206;19;140376;-83
2023/08/18 10:48:14;;;;;;;13.18;5.22;;;;;;;;;;7300699;19;140786;-85
2023/08/18 10:57:30;;;;;;;11.02;5.03;;;;;;;;;;7305367;19;140913;-86
2023/08/18 11:00:24;;;;;;;7.80;4.50;;;;;;;;;;7302284;19;140891;-87
2023/08/18 11:05:47;;;;;;;9.05;4.53;;;;;;;;;;7299848;19;141858;-86
2023/08/18 11:08:17;;;;;;;10.23;5.20;;;;;;;;;;7300527;19;140475;-84
2023/08/18 11:10:44;;;;;;;;;;;;;;;;;;7298260;19;140653;-81
2023/08/18 11:16:28;;;;;;;10.90;5.18;;;;;;;;;;7295212;19;140515;-76
2023/08/18 11:18:56;;;;;;;8.52;4.93;;;;;;;;;;7300221;19;140535;-75
2023/08/18 11:21:23;;;;;;;10.30;5.18;;;;;;;;;;7307800;19;141041;-75
2023/08/18 11:23:51;;;;;;;8.27;4.43;;;;;;;;;;7308050;19;141673;-76
2023/08/18 11:26:19;;;;;;;10.30;4.38;;;;;;;;;;7306819;19;140512;-76
2023/08/18 11:28:47;;;;;;;11.07;4.18;;;;;;;;;;7306504;19;140526;-76
2023/08/18 11:31:14;;;;;;;8.05;4.07;;;;;;;;;;7306996;19;141924;-75
2023/08/18 11:33:43;;;;;;;5.93;3.45;;;;;;;;;;7306524;19;143300;-77
2023/08/18 11:36:11;;;;;;;5.68;3.50;;;;;;;;;;7305472;19;140586;-77
2023/08/18 11:38:44;;;;;;;5.93;3.20;;;;;;;;;;7306488;19;140716;-76
2023/08/18 11:41:11;;;;;;;10.30;3.83;;;;;;;;;;7306548;19;141752;-77
2023/08/18 11:43:39;;;;;;;6.00;3.75;;;;;;;;;;7306975;19;142129;-77
2023/08/18 11:46:06;;;;;;;6.93;3.83;;;;;;;;;;7308512;19;140403;-77
2023/08/18 11:48:33;;;;;;;8.05;3.55;;;;;;;;;;7307528;19;140591;-77
2023/08/18 11:51:00;;;;;;;8.13;3.90;;;;;;;;;;7306283;19;141342;-77
2023/08/18 11:53:29;;;;;;;7.07;3.50;;;;;;;;;;7306670;19;141957;-78
2023/08/18 11:55:56;;;;;;;7.00;3.65;;;;;;;;;;7305183;19;140584;-77
2023/08/18 11:58:24;;;;;;;5.68;3.58;;;;;;;;;;7304096;19;140814;-78
2023/08/18 12:00:51;;;;;;;6.15;3.35;;;;;;;;;;7304541;19;141561;-77
2023/08/18 12:03:25;;;;;;;7.82;3.65;;;;;;;;;;7306413;19;141940;-77
2023/08/18 12:05:54;;;;;;;5.82;3.50;;;;;;;;;;7305813;19;141628;-77
2023/08/18 12:08:22;;;;;;;4.93;3.30;;;;;;;;;;7306381;19;140903;-78
2023/08/18 12:10:49;;;;;;;7.55;3.80;;;;;;;;;;7305714;19;141504;-78
2023/08/18 12:13:21;;;;;;;7.78;4.00;;;;;;;;;;7300546;19;141011;-77
2023/08/18 12:15:47;;;;;;;;;;;;;;;;;;7306972;19;140910;-78
2023/08/18 12:18:14;;;;;;;9.43;4.28;;;;;;;;;;7305897;19;140585;-78
2023/08/18 12:20:42;;;;;;;7.65;3.72;;;;;;;;;;7303192;19;140932;-77
2023/08/18 12:23:09;;;;;;;7.38;3.67;;;;;;;;;;7303526;19;142040;-76
2023/08/18 12:25:36;;;;;;;6.35;3.90;;;;;;;;;;7305182;19;140564;-76
2023/08/18 12:28:03;;;;;;;7.13;3.90;;;;;;;;;;7304259;19;140691;-76
2023/08/18 12:31:07;;;;;;;6.57;3.63;;;;;;;;;;7304078;19;141087;-78
2023/08/18 12:33:35;;;;;;;5.60;3.58;;;;;;;;;;7302232;19;140799;-77
2023/08/18 12:36:05;;;;;;;6.78;3.85;;;;;;;;;;7303394;19;140667;-78
2023/08/18 12:38:32;;;;;;;6.50;3.40;;;;;;;;;;7305252;19;140656;-77
2023/08/18 12:41:02;;;;;;;7.85;4.13;;;;;;;;;;7302941;19;141397;-77
2023/08/18 12:43:30;;;;;;;6.32;3.80;;;;;;;;;;7303746;19;141212;-77
2023/08/18 12:46:04;;;;;;;10.70;4.20;;;;;;;;;;7302276;19;140633;-79
2023/08/18 12:48:33;;;;;;;7.07;3.88;;;;;;;;;;7306570;19;140394;-85
2023/08/18 12:51:03;;;;;;;9.40;4.93;;;;;;;;;;7305210;19;142286;-83
2023/08/18 12:53:35;;;;;;;10.50;5.40;;;;;;;;;;7307334;19;142072;-88
2023/08/18 12:56:16;;;;;;;7.97;5.28;;;;;;;;;;7304883;19;140737;-89
2023/08/18 12:58:43;;;;;;;8.77;5.28;;;;;;;;;;7306011;19;140486;-86
2023/08/18 13:01:12;;;;;;;8.98;5.38;;;;;;;;;;7305334;19;140611;-89
2023/08/18 13:03:39;;;;;;;11.40;5.32;;;;;;;;;;7305267;19;140779;-89
2023/08/18 13:06:07;;;;;;;8.38;4.30;;;;;;;;;;7306057;19;140615;-81
2023/08/18 13:08:34;;;;;;;9.68;5.13;;;;;;;;;;7302863;19;140479;-81
2023/08/18 13:11:04;;;;;;;9.35;5.03;;;;;;;;;;7302511;19;141011;-85
2023/08/18 13:13:32;;;;;;;8.23;5.00;;;;;;;;;;7300644;19;140871;-83
2023/08/18 13:16:01;;;;;;;18.60;8.00;;;;;;;;;;7303131;19;140713;-84
2023/08/18 13:18:29;;;;;;;484.85;254.50;;;;;;;;;;7304922;19;140848;-84
2023/08/18 13:21:08;;;;;;;436.95;229.02;;;;;;;;;;7304424;19;141019;-84
2023/08/18 13:23:39;;;;;;;339.67;175.88;;;;;;;;;;7318999;19;142517;-96
2023/08/18 13:26:07;;;;;;;324.45;171.68;;;;;;;;;;7310847;19;140325;-92
2023/08/18 13:28:39;;;;;;;286.90;156.40;;;;;;;;;;7307794;19;140441;-89
2023/08/18 13:33:54;;;;;;;312.95;165.52;;;;;;;;;;7244929;19;143687;-92
2023/08/18 13:36:22;;;;;;;307.27;163.23;;;;;;;;;;7310433;19;140564;-90
2023/08/18 13:38:57;;;;;;;353.05;183.48;;;;;;;;;;7306040;19;140371;-88
2023/08/18 13:41:42;;;;;;;365.85;193.65;;;;;;;;;;7308155;19;142862;-96
2023/08/18 13:44:12;;;;;;;338.88;179.15;;;;;;;;;;7319004;19;140916;-94
2023/08/18 13:49:35;;;;;;;327.83;171.10;;;;;;;;;;7317765;19;140601;-93
2023/08/18 13:52:03;;;;;;;373.00;193.07;;;;;;;;;;7308408;19;140551;-90
2023/08/18 13:54:39;;;;;;;347.10;180.95;;;;;;;;;;7303436;19;142885;-89
2023/08/18 13:57:06;;;;;;;388.67;201.90;;;;;;;;;;7311396;19;140254;-91
2023/08/18 13:59:33;;;;;;;327.08;171.07;;;;;;;;;;7302691;19;140458;-92
2023/08/18 14:02:00;;;;;;;344.95;179.20;;;;;;;;;;7302005;19;141313;-80
2023/08/18 14:04:28;;;;;;;430.30;224.48;;;;;;;;;;7300444;19;141877;-81
2023/08/18 14:16:14;;;;;;;427.77;222.30;;;;;;;;;;7298178;19;141763;-79
2023/08/18 14:18:41;;;;;;;288.15;153.10;;;;;;;;;;7300447;19;140565;-80
2023/08/18 14:21:09;;;;;;;333.10;173.23;;;;;;;;;;7300196;19;140791;-80
2023/08/18 14:23:36;;;;;;;296.40;158.70;;;;;;;;;;7301252;19;141707;-79
2023/08/18 14:26:04;;;;;;;290.67;154.00;;;;;;;;;;7297647;19;142737;-75
2023/08/18 14:28:31;;;;;;;289.60;153.77;;;;;;;;;;7300775;19;140579;-76
2023/08/18 14:30:58;;;;;;;290.40;153.43;;;;;;;;;;7299282;19;140496;-77
2023/08/18 14:33:25;;;;;;;301.88;158.20;;;;;;;;;;7296387;19;140953;-77
2023/08/18 14:36:09;;;;;;;300.75;157.35;;;;;;;;;;7301331;19;140854;-76
2023/08/18 14:38:36;;;;;;;365.70;187.98;;;;;;;;;;7301459;19;140750;-76
2023/08/18 14:41:05;;;;;;;295.88;155.23;;;;;;;;;;7300744;19;140723;-78
2023/08/18 14:43:32;;;;;;;249.07;133.05;;;;;;;;;;7299027;19;141854;-78
2023/08/18 14:46:00;;;;;;;236.48;133.93;;;;;;;;;;7300077;19;142130;-76
2023/08/18 14:48:27;;;;;;;243.15;137.05;;;;;;;;;;7298600;19;140511;-77
2023/08/18 14:50:57;;;;;;;161.53;102.87;;;;;;;;;;7298207;19;140796;-76
2023/08/18 14:53:36;;;;;;;141.95;90.35;;;;;;;;;;7295286;19;141222;-77
2023/08/18 14:56:08;;;;;;;189.02;114.35;;;;;;;;;;7299853;19;140950;-78
2023/08/18 14:58:35;;;;;;;241.15;136.20;;;;;;;;;;7299484;19;140564;-75
2023/08/18 15:01:03;;;;;;;224.25;128.90;;;;;;;;;;7298036;19;140866;-76
2023/08/18 15:03:30;;;;;;;246.95;140.45;;;;;;;;;;7296792;19;140580;-78
2023/08/18 15:06:01;;;;;;;241.30;137.15;;;;;;;;;;7300596;19;140918;-78
2023/08/18 15:11:16;;;;;;;205.40;122.00;;;;;;;;;;7300246;19;140716;-78
2023/08/18 15:16:34;;;;;;;235.07;134.48;;;;;;;;;;7296456;19;143027;-77
2023/08/18 15:19:03;;;;;;;238.63;137.20;;;;;;;;;;7298980;19;140401;-76
2023/08/18 15:24:22;;;;;;;228.43;132.88;;;;;;;;;;7297954;19;147004;-77
2023/08/18 15:26:51;;;;;;;237.93;133.27;;;;;;;;;;7294514;19;142539;-77
2023/08/18 15:29:18;;;;;;;234.20;136.45;;;;;;;;;;7300075;19;140532;-78
2023/08/18 15:31:51;;;;;;;246.73;137.60;;;;;;;;;;7297607;19;140754;-79
2023/08/18 15:34:18;;;;;;;321.38;170.52;;;;;;;;;;7297018;19;140833;-80
2023/08/18 15:36:45;;;;;;;337.42;182.43;;;;;;;;;;7298067;19;141982;-80
2023/08/18 15:39:14;;;;;;;369.88;196.35;;;;;;;;;;7298451;19;140648;-83
2023/08/18 15:41:41;;;;;;;414.50;222.45;;;;;;;;;;7299368;19;140737;-79
2023/08/18 15:44:08;;;;;;;416.10;223.43;;;;;;;;;;7297938;19;141011;-85
2023/08/18 15:46:36;;;;;;;390.05;206.85;;;;;;;;;;7298689;19;141838;-77
2023/08/18 15:49:04;;;;;;;400.65;209.40;;;;;;;;;;7297725;19;140502;-76
2023/08/18 15:51:31;;;;;;;408.38;215.65;;;;;;;;;;7298315;19;140663;-77
2023/08/18 15:54:02;;;;;;;372.83;196.68;;;;;;;;;;7297670;19;141134;-79
2023/08/18 15:56:29;;;;;;;408.50;218.15;;;;;;;;;;7298838;19;142785;-77
2023/08/18 15:58:57;;;;;;;413.10;216.48;;;;;;;;;;7298886;19;140481;-86
2023/08/18 16:01:24;;;;;;;424.20;224.70;;;;;;;;;;7297244;19;140574;-76
2023/08/18 16:03:51;;;;;;;326.00;172.30;;;;;;;;;;7297784;19;141994;-75
2023/08/18 16:06:18;;;;;;;349.02;186.55;;;;;;;;;;7298421;19;142600;-77
2023/08/18 16:08:45;;;;;;;336.83;180.30;;;;;;;;;;7304779;19;140425;-74
2023/08/18 16:11:12;;;;;;;356.00;189.25;;;;;;;;;;7305016;19;140635;-74
2023/08/18 16:13:39;;;;;;;365.88;198.07;;;;;;;;;;7304901;19;141796;-74
2023/08/18 16:19:24;;;;;;;341.90;182.65;;;;;;;;;;7301297;19;140855;-74
2023/08/18 16:21:51;;;;;;;339.23;181.75;;;;;;;;;;7305360;19;140492;-76
2023/08/18 16:24:19;;;;;;;337.02;181.23;;;;;;;;;;7305400;19;140835;-73
2023/08/18 16:26:46;;;;;;;369.13;197.82;;;;;;;;;;7304757;19;142867;-74
2023/08/18 16:29:16;;;;;;;373.98;198.80;;;;;;;;;;7305279;19;140519;-73
2023/08/18 16:31:43;;;;;;;383.65;204.82;;;;;;;;;;7305202;19;140584;-76
2023/08/18 16:34:10;;;;;;;374.38;201.80;;;;;;;;;;7305703;19;140969;-74
2023/08/18 16:38:35;;;;;;;56.85;50.95;;;;;;;;;;7343980;19;140706;-74
2023/08/18 16:41:04;;;;;;;65.40;58.20;;;;;;;;;;7337296;19;140673;-73
2023/08/18 16:46:35;;;;;;;127.93;90.22;;;;;;;;;;7354805;19;142094;-74
2023/08/18 16:49:03;;;;;;;152.88;104.13;;;;;;;;;;7360585;19;142621;-76
2023/08/18 16:51:30;;;;;;;193.00;121.07;;;;;;;;;;7368730;19;139932;-76
2023/08/18 16:53:57;;;;;;;172.63;110.38;;;;;;;;;;7369279;19;139922;-84
2023/08/18 16:56:24;;;;;;;139.98;95.53;;;;;;;;;;7368654;19;142325;-86
2023/08/18 16:58:51;;;;;;;133.45;95.15;;;;;;;;;;7351430;19;140424;-83
2023/08/18 17:01:24;;;;;;;142.45;100.07;;;;;;;;;;7347881;19;140605;-84
2023/08/18 17:07:16;;;;;;;141.27;98.78;;;;;;;;;;7270799;19;147875;-82
2023/08/18 17:40:30;;;;;;;74.10;62.25;;;;;;;;;;7281121;19;143655;-82
2023/08/18 17:42:57;;;;;;;83.80;66.70;;;;;;;;;;7334758;19;141141;-82
2023/08/18 17:48:40;;;;;;;110.47;82.05;;;;;;;;;;7318419;19;140556;-81
2023/08/18 17:51:09;;;;;;;133.73;94.15;;;;;;;;;;7306091;19;140804;-82
2023/08/18 18:00:06;;;;;;;133.13;94.22;;;;;;;;;;7252713;19;142605;-81
2023/08/18 18:27:21;;;;;;;106.10;68.80;;;;;;;;;;7229209;19;143355;-83
2023/08/18 18:32:35;;;;;;;83.35;68.88;;;;;;;;;;7307399;19;140662;-81
2023/08/18 18:35:03;;;;;;;125.93;87.78;;;;;;;;;;7304449;19;140459;-82
2023/08/18 18:37:37;;;;;;;114.15;83.13;;;;;;;;;;7304337;19;140519;-81
2023/08/18 18:53:24;;;;;;;49.72;31.33;;;;;;;;;;7227867;19;142987;-81
2023/08/18 19:14:16;;;;;;;83.95;67.38;;;;;;;;;;7304285;19;140560;-87
2023/08/18 19:16:49;;;;;;;102.60;76.20;;;;;;;;;;7301702;19;140684;-88